createdAt,value
2022-10-17T00:01:34.000Z,94.1
2022-10-17T00:02:51.000Z,94.3
2022-10-17T00:04:07.000Z,94.6
2022-10-17T00:05:23.000Z,95.1
2022-10-17T00:06:39.000Z,95.4
2022-10-17T00:07:56.000Z,95.3
2022-10-17T00:09:12.000Z,95.4
2022-10-17T00:10:28.000Z,95.6
2022-10-17T00:11:45.000Z,95.9
2022-10-17T00:13:01.000Z,95.9
2022-10-17T00:14:16.000Z,95.6
2022-10-17T00:15:32.000Z,95.6
2022-10-17T00:16:49.000Z,95.8
2022-10-17T00:18:05.000Z,95.9
2022-10-17T00:19:21.000Z,96
2022-10-17T00:20:38.000Z,95.6
2022-10-17T00:21:54.000Z,95.7
2022-10-17T00:23:10.000Z,95.9
2022-10-17T00:24:25.000Z,95.9
2022-10-17T00:26:57.000Z,96
2022-10-17T00:28:13.000Z,96.2
2022-10-17T00:29:30.000Z,96.3
2022-10-17T00:30:46.000Z,96.1
2022-10-17T00:32:02.000Z,96.4
2022-10-17T00:33:18.000Z,96.6
2022-10-17T00:34:35.000Z,96.9
2022-10-17T00:35:51.000Z,97
2022-10-17T00:37:07.000Z,97.1
2022-10-17T00:38:24.000Z,97.3
2022-10-17T00:39:40.000Z,96.9
2022-10-17T00:40:56.000Z,96.8
2022-10-17T00:42:11.000Z,96.7
2022-10-17T00:43:28.000Z,96.6
2022-10-17T00:46:00.000Z,96.7
2022-10-17T00:47:17.000Z,96.8
2022-10-17T00:48:33.000Z,96.9
2022-10-17T00:49:49.000Z,97
2022-10-17T00:51:06.000Z,96.9
2022-10-17T00:52:22.000Z,96.9
2022-10-17T00:53:38.000Z,96.9
2022-10-17T00:54:54.000Z,96.8
2022-10-17T00:56:11.000Z,97.1
2022-10-17T00:58:43.000Z,96.9
2022-10-17T00:59:59.000Z,97.2
2022-10-17T01:01:15.000Z,97.3
2022-10-17T01:02:31.000Z,97.4
2022-10-17T01:03:47.888Z,97.6
2022-10-17T01:05:04.000Z,97.7
2022-10-17T01:06:20.000Z,97.9
2022-10-17T01:07:36.000Z,97.8
2022-10-17T01:08:53.000Z,97.9
2022-10-17T01:10:09.000Z,97.9
2022-10-17T01:11:25.000Z,97.9
2022-10-17T01:12:41.000Z,97.8
2022-10-17T01:13:58.000Z,98
2022-10-17T01:15:14.000Z,98.1
2022-10-17T01:16:29.000Z,97.9
2022-10-17T01:17:46.000Z,98
2022-10-17T01:19:02.000Z,98.1
2022-10-17T01:20:18.000Z,98.1
2022-10-17T01:21:34.000Z,98.3
2022-10-17T01:22:51.000Z,98.3
2022-10-17T01:24:07.000Z,98.3
2022-10-17T01:25:23.000Z,98.4
2022-10-17T01:26:40.000Z,98.4
2022-10-17T01:27:56.000Z,98.4
2022-10-17T01:29:12.000Z,98.4
2022-10-17T01:30:28.000Z,98.2
2022-10-17T01:31:45.000Z,98.4
2022-10-17T01:33:00.000Z,98.4
2022-10-17T01:34:16.000Z,98.5
2022-10-17T01:36:49.000Z,98.3
2022-10-17T01:38:05.000Z,98.2
2022-10-17T01:39:21.000Z,98.3
2022-10-17T01:40:38.000Z,98.2
2022-10-17T01:41:54.000Z,98.2
2022-10-17T01:43:10.000Z,98.5
2022-10-17T01:44:27.000Z,98.7
2022-10-17T01:45:43.000Z,98.7
2022-10-17T01:46:59.000Z,98.9
2022-10-17T01:48:15.000Z,98.8
2022-10-17T01:49:31.000Z,98.9
2022-10-17T01:50:47.000Z,98.9
2022-10-17T01:52:03.000Z,99
2022-10-17T01:53:20.000Z,98.9
2022-10-17T01:54:36.000Z,98.8
2022-10-17T01:55:52.000Z,99
2022-10-17T01:57:08.000Z,99.1
2022-10-17T01:58:25.000Z,99.1
2022-10-17T01:59:41.000Z,99.1
2022-10-17T02:02:14.000Z,99.2
2022-10-17T02:03:30.000Z,99
2022-10-17T02:06:02.000Z,99
2022-10-17T02:07:18.000Z,99
2022-10-17T02:08:33.000Z,99
2022-10-17T02:09:49.000Z,98.9
2022-10-17T02:11:06.000Z,98.8
2022-10-17T02:12:22.000Z,98.9
2022-10-17T02:14:55.000Z,99
2022-10-17T02:16:10.000Z,99
2022-10-17T02:17:25.000Z,99
2022-10-17T02:18:41.000Z,98.9
2022-10-17T02:19:58.000Z,98.9
2022-10-17T02:21:14.000Z,98.8
2022-10-17T02:22:30.000Z,98.9
2022-10-17T02:25:03.000Z,98.9
2022-10-17T02:27:35.000Z,98.7
2022-10-17T02:28:52.000Z,98.7
2022-10-17T02:30:08.000Z,98.6
2022-10-17T02:31:24.000Z,98.5
2022-10-17T02:32:40.000Z,98.5
2022-10-17T02:33:55.000Z,98.6
2022-10-17T02:35:11.000Z,98.6
2022-10-17T02:36:28.000Z,98.7
2022-10-17T02:37:44.000Z,98.6
2022-10-17T02:40:16.000Z,98.7
2022-10-17T02:41:33.000Z,98.7
2022-10-17T02:42:49.000Z,98.6
2022-10-17T02:44:05.000Z,98.6
2022-10-17T02:45:22.000Z,98.5
2022-10-17T02:46:38.000Z,98.5
2022-10-17T02:47:54.000Z,98.5
2022-10-17T02:49:10.000Z,98.5
2022-10-17T02:50:26.000Z,98.5
2022-10-17T02:52:58.000Z,98.6
2022-10-17T02:54:15.000Z,98.6
2022-10-17T02:55:31.000Z,98.6
2022-10-17T02:56:47.000Z,98.6
2022-10-17T02:58:03.000Z,98.6
2022-10-17T02:59:20.000Z,98.7
2022-10-17T03:00:36.000Z,98.7
2022-10-17T03:01:52.000Z,98.7
2022-10-17T03:03:09.000Z,98.7
2022-10-17T03:04:25.000Z,98.7
2022-10-17T03:05:41.000Z,98.8
2022-10-17T03:06:56.000Z,98.8
2022-10-17T03:08:12.000Z,98.7
2022-10-17T03:09:28.000Z,98.7
2022-10-17T03:10:44.000Z,98.6
2022-10-17T03:12:01.000Z,98.5
2022-10-17T03:13:17.000Z,98.6
2022-10-17T03:14:33.000Z,98.5
2022-10-17T03:15:49.000Z,98.5
2022-10-17T03:18:22.000Z,98.4
2022-10-17T03:20:55.000Z,98.4
2022-10-17T03:22:11.000Z,98.4
2022-10-17T03:23:26.000Z,98.5
2022-10-17T03:24:42.000Z,98.5
2022-10-17T03:25:58.000Z,98.6
2022-10-17T03:27:14.000Z,98.6
2022-10-17T03:28:30.000Z,98.7
2022-10-17T03:29:47.000Z,98.7
2022-10-17T03:31:03.000Z,98.7
2022-10-17T03:32:19.000Z,98.7
2022-10-17T03:33:36.000Z,98.6
2022-10-17T03:34:52.000Z,98.6
2022-10-17T03:36:08.000Z,98.6
2022-10-17T03:37:23.000Z,98.6
2022-10-17T03:38:39.000Z,98.5
2022-10-17T03:39:55.000Z,98.4
2022-10-17T03:41:11.000Z,98.5
2022-10-17T03:42:28.000Z,98.3
2022-10-17T03:43:44.000Z,98.4
2022-10-17T03:46:16.000Z,98.4
2022-10-17T03:47:33.000Z,98.4
2022-10-17T03:48:49.000Z,98.4
2022-10-17T03:50:05.000Z,98.4
2022-10-17T03:51:22.000Z,98.3
2022-10-17T03:52:38.000Z,98.3
2022-10-17T03:53:54.000Z,98.3
2022-10-17T03:56:26.000Z,98.4
2022-10-17T03:57:41.000Z,98.4
2022-10-17T03:58:56.000Z,98.4
2022-10-17T04:00:13.000Z,98.4
2022-10-17T04:01:29.000Z,98.3
2022-10-17T04:02:45.000Z,98.4
2022-10-17T04:04:02.000Z,98.4
2022-10-17T04:05:18.000Z,98.4
2022-10-17T04:06:34.000Z,98.4
2022-10-17T04:10:23.000Z,98.3
2022-10-17T04:11:39.000Z,98.3
2022-10-17T04:12:56.000Z,98.3
2022-10-17T04:14:12.000Z,98.3
2022-10-17T04:15:27.000Z,98.3
2022-10-17T04:16:43.000Z,98.2
2022-10-17T04:18:00.000Z,98.2
2022-10-17T04:19:16.000Z,98.1
2022-10-17T04:21:49.000Z,98.2
2022-10-17T04:23:05.000Z,98.3
2022-10-17T04:24:21.000Z,98.2
2022-10-17T04:26:54.000Z,98.2
2022-10-17T04:28:10.000Z,98.2
2022-10-17T04:29:26.000Z,98.2
2022-10-17T04:30:43.000Z,98.2
2022-10-17T04:31:58.000Z,98.2
2022-10-17T04:33:14.000Z,98.2
2022-10-17T04:34:30.000Z,98.1
2022-10-17T04:35:47.000Z,98.1
2022-10-17T04:37:03.000Z,98
2022-10-17T04:38:19.000Z,98
2022-10-17T04:39:36.000Z,98
2022-10-17T04:40:52.000Z,98
2022-10-17T04:42:08.000Z,98.1
2022-10-17T04:43:24.000Z,98.1
2022-10-17T04:44:41.000Z,98
2022-10-17T04:47:13.000Z,98
2022-10-17T04:48:29.000Z,98
2022-10-17T04:49:45.000Z,98
2022-10-17T04:51:01.000Z,98
2022-10-17T04:52:17.000Z,98.1
2022-10-17T04:53:33.000Z,98.1
2022-10-17T04:54:48.000Z,98.1
2022-10-17T04:56:04.000Z,98.1
2022-10-17T04:57:21.000Z,98.1
2022-10-17T04:58:37.000Z,98.1
2022-10-17T04:59:53.000Z,98.1
2022-10-17T05:01:10.000Z,98.1
2022-10-17T05:02:26.000Z,98.1
2022-10-17T05:03:42.000Z,98
2022-10-17T05:04:58.000Z,97.9
2022-10-17T05:06:15.000Z,97.9
2022-10-17T05:07:30.000Z,97.9
2022-10-17T05:08:45.000Z,97.8
2022-10-17T05:10:02.000Z,97.7
2022-10-17T05:11:18.000Z,97.8
2022-10-17T05:12:34.000Z,97.8
2022-10-17T05:13:50.000Z,97.8
2022-10-17T05:15:07.000Z,97.8
2022-10-17T05:16:23.000Z,97.8
2022-10-17T05:17:39.000Z,97.9
2022-10-17T05:18:56.000Z,97.9
2022-10-17T05:20:12.000Z,97.9
2022-10-17T05:21:28.000Z,98
2022-10-17T05:22:44.000Z,98.1
2022-10-17T05:24:01.000Z,98.1
2022-10-17T05:25:17.000Z,98.1
2022-10-17T05:26:32.000Z,98.1
2022-10-17T05:27:48.000Z,98.1
2022-10-17T05:29:05.000Z,98.1
2022-10-17T05:30:21.000Z,98.1
2022-10-17T05:31:37.000Z,98.2
2022-10-17T05:32:53.000Z,98.2
2022-10-17T05:34:10.000Z,98.2
2022-10-17T05:35:26.000Z,98.2
2022-10-17T05:37:58.000Z,98.3
2022-10-17T05:39:15.000Z,98.3
2022-10-17T05:40:31.000Z,98.3
2022-10-17T05:41:47.000Z,98.3
2022-10-17T05:43:02.000Z,98.3
2022-10-17T05:44:18.000Z,98.3
2022-10-17T05:46:51.000Z,98.2
2022-10-17T05:48:07.000Z,98.1
2022-10-17T05:51:56.000Z,98.1
2022-10-17T05:53:11.000Z,98.1
2022-10-17T05:54:26.000Z,98.1
2022-10-17T05:55:43.000Z,98
2022-10-17T05:56:59.000Z,98
2022-10-17T05:59:31.000Z,97.9
2022-10-17T06:00:48.000Z,98
2022-10-17T06:02:04.000Z,98
2022-10-17T06:03:20.000Z,97.9
2022-10-17T06:04:36.000Z,97.9
2022-10-17T06:05:53.000Z,97.9
2022-10-17T06:07:09.000Z,97.9
2022-10-17T06:08:25.000Z,97.8
2022-10-17T06:10:57.000Z,97.8
2022-10-17T06:12:13.000Z,97.8
2022-10-17T06:16:00.000Z,97.8
2022-10-17T06:17:17.000Z,97.8
2022-10-17T06:18:33.000Z,97.7
2022-10-17T06:21:05.000Z,97.7
2022-10-17T06:22:22.000Z,97.5
2022-10-17T06:23:37.000Z,97.5
2022-10-17T06:24:53.000Z,97.4
2022-10-17T06:26:09.000Z,97.3
2022-10-17T06:27:26.000Z,97.3
2022-10-17T06:28:42.000Z,97.2
2022-10-17T06:29:58.000Z,97.1
2022-10-17T06:31:14.000Z,97.1
2022-10-17T06:32:30.000Z,97.1
2022-10-17T06:33:47.000Z,97.1
2022-10-17T06:35:03.000Z,96.9
2022-10-17T06:36:19.000Z,96.8
2022-10-17T06:37:35.000Z,96.6
2022-10-17T06:38:52.000Z,96.5
2022-10-17T06:40:07.000Z,96.3
2022-10-17T06:41:23.000Z,96.2
2022-10-17T06:42:38.000Z,96.1
2022-10-17T06:43:55.000Z,96
2022-10-17T06:45:10.000Z,96
2022-10-17T06:46:26.000Z,95.9
2022-10-17T06:47:42.000Z,95.8
2022-10-17T06:48:59.000Z,95.7
2022-10-17T06:51:31.000Z,95.5
2022-10-17T06:54:03.000Z,95.3
2022-10-17T06:55:20.000Z,95.1
2022-10-17T06:56:36.000Z,95.1
2022-10-17T06:57:52.000Z,95
2022-10-17T06:59:07.000Z,94.9
2022-10-17T07:00:23.000Z,94.8
2022-10-17T07:01:39.000Z,94.6
2022-10-17T07:02:55.000Z,94.4
2022-10-17T07:04:11.000Z,94.3
2022-10-17T07:06:44.000Z,94.2
2022-10-17T07:08:00.000Z,94.1
2022-10-17T07:09:16.000Z,94
2022-10-17T07:10:33.000Z,93.9
2022-10-17T07:11:49.000Z,93.8
2022-10-17T07:13:05.000Z,93.8
2022-10-17T07:14:21.000Z,93.7
2022-10-17T07:15:37.000Z,93.5
2022-10-17T07:16:53.000Z,93.3
2022-10-17T07:18:09.000Z,93.2
2022-10-17T07:19:25.000Z,92.9
2022-10-17T07:20:41.000Z,92.8
2022-10-17T07:21:58.000Z,92.5
2022-10-17T07:23:14.000Z,92.3
2022-10-17T07:24:30.000Z,92
2022-10-17T07:25:46.000Z,91.8
2022-10-17T07:27:03.000Z,91.7
2022-10-17T07:28:18.000Z,91.5
2022-10-17T07:29:33.000Z,91.5
2022-10-17T07:30:49.000Z,91.3
2022-10-17T07:32:06.000Z,91.1
2022-10-17T07:33:22.000Z,91
2022-10-17T07:34:38.000Z,91
2022-10-17T07:35:54.000Z,90.9
2022-10-17T07:37:11.000Z,90.9
2022-10-17T07:38:27.000Z,90.8
2022-10-17T07:39:43.000Z,90.7
2022-10-17T07:40:59.000Z,90.5
2022-10-17T07:42:14.000Z,90.4
2022-10-17T07:43:30.000Z,90.2
2022-10-17T07:44:46.000Z,90
2022-10-17T07:46:02.000Z,90
2022-10-17T07:47:18.000Z,89.8
2022-10-17T07:48:35.000Z,89.7
2022-10-17T07:49:51.000Z,89.4
2022-10-17T07:51:07.000Z,89.1
2022-10-17T07:52:23.000Z,88.9
2022-10-17T07:54:56.000Z,88.6
2022-10-17T07:56:12.000Z,88.5
2022-10-17T07:57:28.000Z,88.6
2022-10-17T07:58:45.000Z,88.5
2022-10-17T08:00:01.000Z,88.4
2022-10-17T08:01:17.000Z,88.3
2022-10-17T08:02:32.000Z,88.4
2022-10-17T08:03:48.000Z,88.4
2022-10-17T08:05:05.000Z,88.4
2022-10-17T08:06:21.000Z,88.3
2022-10-17T08:07:37.000Z,88
2022-10-17T08:10:10.000Z,87.5
2022-10-17T08:11:26.000Z,87.5
2022-10-17T08:12:42.000Z,87.2
2022-10-17T08:13:58.000Z,87.3
2022-10-17T08:15:15.000Z,87.1
2022-10-17T08:16:31.000Z,87
2022-10-17T08:17:47.000Z,87.1
2022-10-17T08:19:02.000Z,87.1
2022-10-17T08:20:19.000Z,87.2
2022-10-17T08:22:51.000Z,87.4
2022-10-17T08:24:07.000Z,87.5
2022-10-17T08:25:23.000Z,87.5
2022-10-17T08:26:40.000Z,87.4
2022-10-17T08:27:56.000Z,87.4
2022-10-17T08:29:12.000Z,87.4
2022-10-17T08:30:28.000Z,87.1
2022-10-17T08:31:45.000Z,87.1
2022-10-17T08:33:01.000Z,87
2022-10-17T08:35:33.000Z,86.7
2022-10-17T08:36:49.000Z,86.2
2022-10-17T08:38:04.000Z,85.8
2022-10-17T08:39:20.000Z,85.1
2022-10-17T08:40:36.000Z,83.7
2022-10-17T08:41:53.000Z,82.3
2022-10-17T08:43:09.000Z,78.9
2022-10-17T08:44:25.000Z,76.5
2022-10-17T08:45:41.000Z,76.2
2022-10-17T08:48:14.000Z,77.5
2022-10-17T08:49:30.000Z,77.3
2022-10-17T08:50:46.000Z,77
2022-10-17T08:53:19.000Z,77.3
2022-10-17T08:54:34.000Z,77.5
2022-10-17T08:59:38.000Z,79.4
2022-10-17T09:00:54.000Z,80
2022-10-17T09:02:10.000Z,80
2022-10-17T09:03:27.000Z,80.3
2022-10-17T09:04:43.000Z,80.6
2022-10-17T09:05:59.000Z,80.3
2022-10-17T09:07:15.000Z,80.6
2022-10-17T09:08:31.000Z,80.6
2022-10-17T09:11:04.000Z,80.7
2022-10-17T09:13:35.000Z,80.5
2022-10-17T09:14:52.000Z,80.5
2022-10-17T09:16:08.000Z,80
2022-10-17T09:17:24.000Z,80.3
2022-10-17T09:18:40.000Z,80.5
2022-10-17T09:19:57.000Z,80.3
2022-10-17T09:21:13.000Z,80.2
2022-10-17T09:22:29.000Z,80.2
2022-10-17T09:23:45.000Z,80
2022-10-17T09:26:18.000Z,80
2022-10-17T09:28:50.000Z,80
2022-10-17T09:30:05.000Z,79.7
2022-10-17T09:31:22.000Z,79.3
2022-10-17T09:32:38.000Z,78.8
2022-10-17T09:33:54.000Z,78
2022-10-17T09:35:10.000Z,75
2022-10-17T09:36:27.000Z,74.3
2022-10-17T09:37:43.362Z,74.7
2022-10-17T09:38:59.000Z,75.6
2022-10-17T09:40:15.000Z,76.2
2022-10-17T09:41:32.000Z,76.9
2022-10-17T09:42:48.000Z,77.3
2022-10-17T09:44:04.000Z,77.6
2022-10-17T09:46:36.000Z,78.1
2022-10-17T09:47:52.000Z,78.4
2022-10-17T09:49:08.000Z,78.5
2022-10-17T09:50:24.000Z,78.6
2022-10-17T09:51:40.000Z,78.5
2022-10-17T09:52:57.000Z,78.8
2022-10-17T09:54:13.000Z,78.8
2022-10-17T09:55:28.000Z,78.8
2022-10-17T09:56:43.000Z,78.7
2022-10-17T09:58:00.000Z,78.4
2022-10-17T09:59:16.000Z,78
2022-10-17T10:00:32.000Z,77.6
2022-10-17T10:04:21.000Z,72.8
2022-10-17T10:05:37.000Z,73.5
2022-10-17T10:06:53.000Z,73.7
2022-10-17T10:08:10.000Z,74.1
2022-10-17T10:09:26.000Z,74.6
2022-10-17T10:10:42.000Z,74.8
2022-10-17T10:11:57.000Z,74.9
2022-10-17T10:13:12.000Z,75.1
2022-10-17T10:14:29.000Z,75.3
2022-10-17T10:15:45.000Z,75.5
2022-10-17T10:17:01.000Z,75.7
2022-10-17T10:18:17.000Z,76.1
2022-10-17T10:19:34.000Z,76
2022-10-17T10:20:50.000Z,76.3
2022-10-17T10:22:06.000Z,76.6
2022-10-17T10:23:22.000Z,76.8
2022-10-17T10:24:39.000Z,76.7
2022-10-17T10:25:54.000Z,76.9
2022-10-17T10:28:25.000Z,77.2
2022-10-17T10:29:42.000Z,76.9
2022-10-17T10:30:58.000Z,77.1
2022-10-17T10:32:14.000Z,77.2
2022-10-17T10:33:30.000Z,77.2
2022-10-17T10:34:46.000Z,77.3
2022-10-17T10:36:03.000Z,77.3
2022-10-17T10:37:19.000Z,77.5
2022-10-17T10:38:34.000Z,77.6
2022-10-17T10:39:50.000Z,77.7
2022-10-17T10:42:22.000Z,77.8
2022-10-17T10:43:37.000Z,77.9
2022-10-17T10:44:53.000Z,77.6
2022-10-17T10:46:10.000Z,77.9
2022-10-17T10:47:26.000Z,78.1
2022-10-17T10:48:42.000Z,78.2
2022-10-17T10:49:58.000Z,78.2
2022-10-17T10:51:15.000Z,78.3
2022-10-17T10:52:31.000Z,78.5
2022-10-17T10:53:47.000Z,78.5
2022-10-17T10:55:02.000Z,78.6
2022-10-17T10:56:18.000Z,78.7
2022-10-17T10:57:34.000Z,78.7
2022-10-17T10:58:50.000Z,78.8
2022-10-17T11:00:06.000Z,79
2022-10-17T11:01:22.000Z,78.9
2022-10-17T11:02:39.000Z,79
2022-10-17T11:03:55.000Z,79
2022-10-17T11:05:11.000Z,78.7
2022-10-17T11:06:27.000Z,78.7
2022-10-17T11:07:44.000Z,78.7
2022-10-17T11:09:00.000Z,78.8
2022-10-17T11:10:16.000Z,78.9
2022-10-17T11:11:32.000Z,79.1
2022-10-17T11:12:48.000Z,79.3
2022-10-17T11:14:04.000Z,79.3
2022-10-17T11:15:20.000Z,79.4
2022-10-17T11:16:36.000Z,79.4
2022-10-17T11:17:53.000Z,79.2
2022-10-17T11:20:25.000Z,78.6
2022-10-17T11:21:41.000Z,78.7
2022-10-17T11:22:57.000Z,78.9
2022-10-17T11:24:14.000Z,78.8
2022-10-17T11:25:30.000Z,78.8
2022-10-17T11:26:46.000Z,78.9
2022-10-17T11:28:02.000Z,79.1
2022-10-17T11:29:18.000Z,79
2022-10-17T11:30:34.000Z,78.8
2022-10-17T11:33:06.000Z,77.7
2022-10-17T11:34:23.000Z,77.2
2022-10-17T11:36:55.000Z,76.7
2022-10-17T11:39:27.000Z,76.6
2022-10-17T11:40:42.000Z,76.5
2022-10-17T11:41:57.000Z,76.8
2022-10-17T11:43:13.000Z,77.3
2022-10-17T11:44:30.000Z,77
2022-10-17T11:45:46.000Z,76.9
2022-10-17T11:47:02.000Z,77
2022-10-17T11:48:18.000Z,77.3
2022-10-17T11:49:34.000Z,77.4
2022-10-17T11:50:51.000Z,77.2
2022-10-17T11:52:07.000Z,77.3
2022-10-17T11:53:23.000Z,77.4
2022-10-17T11:54:38.000Z,77.2
2022-10-17T11:55:54.000Z,77.5
2022-10-17T11:58:26.000Z,78
2022-10-17T11:59:42.000Z,78.2
2022-10-17T12:00:59.000Z,78.1
2022-10-17T12:02:15.000Z,77.3
2022-10-17T12:03:31.000Z,77.4
2022-10-17T12:04:47.000Z,77
2022-10-17T12:06:04.000Z,77.1
2022-10-17T12:07:20.000Z,77.5
2022-10-17T12:08:36.000Z,78.4
2022-10-17T12:11:08.000Z,79.6
2022-10-17T12:12:24.000Z,79.2
2022-10-17T12:13:40.000Z,78.7
2022-10-17T12:14:56.000Z,80
2022-10-17T12:16:13.000Z,79.5
2022-10-17T12:17:29.000Z,79.5
2022-10-17T12:18:45.000Z,78.5
2022-10-17T12:20:01.000Z,79.1
2022-10-17T12:21:17.000Z,79.3
2022-10-17T12:22:34.000Z,78.9
2022-10-17T12:23:50.000Z,79.4
2022-10-17T12:25:06.000Z,79.6
2022-10-17T12:26:22.000Z,79.4
2022-10-17T12:27:38.000Z,80.1
2022-10-17T12:28:53.000Z,79.5
2022-10-17T12:30:09.000Z,79.5
2022-10-17T12:31:25.000Z,79
2022-10-17T12:32:42.000Z,79.2
2022-10-17T12:33:58.000Z,78.9
2022-10-17T12:35:14.000Z,78.8
2022-10-17T12:36:30.000Z,79.1
2022-10-17T12:37:47.000Z,79
2022-10-17T12:39:03.000Z,78.9
2022-10-17T12:40:19.000Z,79.4
2022-10-17T12:41:35.000Z,79.6
2022-10-17T12:42:51.000Z,79
2022-10-17T12:44:08.000Z,79
2022-10-17T12:45:23.000Z,79.9
2022-10-17T12:46:39.000Z,79.7
2022-10-17T12:49:12.000Z,80.1
2022-10-17T12:50:28.000Z,81
2022-10-17T12:51:44.000Z,80.7
2022-10-17T12:53:00.000Z,80.6
2022-10-17T12:54:17.000Z,80.4
2022-10-17T12:55:33.000Z,81
2022-10-17T12:56:49.000Z,81.5
2022-10-17T12:59:22.000Z,82.7
2022-10-17T13:01:54.000Z,83.9
2022-10-17T13:03:09.000Z,83.7
2022-10-17T13:04:24.000Z,84.7
2022-10-17T13:05:41.000Z,85.3
2022-10-17T13:06:57.000Z,84.7
2022-10-17T13:08:13.000Z,84.7
2022-10-17T13:09:29.000Z,86.6
2022-10-17T13:10:46.000Z,85.5
2022-10-17T13:12:02.000Z,86.7
2022-10-17T13:13:18.000Z,87.1
2022-10-17T13:14:34.000Z,87.3
2022-10-17T13:15:51.000Z,87.5
2022-10-17T13:17:06.000Z,87.4
2022-10-17T13:18:21.000Z,88
2022-10-17T13:19:37.000Z,88.3
2022-10-17T13:20:54.000Z,88.1
2022-10-17T13:22:10.000Z,88.4
2022-10-17T13:23:26.000Z,88.9
2022-10-17T13:24:42.000Z,88.2
2022-10-17T13:25:58.000Z,88.5
2022-10-17T13:27:15.000Z,88.8
2022-10-17T13:28:31.000Z,88.9
2022-10-17T13:29:47.000Z,89.6
2022-10-17T13:31:03.000Z,89.5
2022-10-17T13:32:20.000Z,89.5
2022-10-17T13:33:36.000Z,89.7
2022-10-17T13:34:51.000Z,90.2
2022-10-17T13:36:07.000Z,90.4
2022-10-17T13:37:24.000Z,90.3
2022-10-17T13:39:56.000Z,89.4
2022-10-17T13:41:12.000Z,90.1
2022-10-17T13:42:29.000Z,90.6
2022-10-17T13:43:45.000Z,90.2
2022-10-17T13:45:01.000Z,90.2
2022-10-17T13:46:17.000Z,90.1
2022-10-17T13:47:33.000Z,89.8
2022-10-17T13:48:50.000Z,90.1
2022-10-17T13:50:06.000Z,90.1
2022-10-17T13:51:21.000Z,90.1
2022-10-17T13:52:37.000Z,90.3
2022-10-17T13:53:54.000Z,90.9
2022-10-17T13:55:10.000Z,88.9
2022-10-17T13:56:26.000Z,89.2
2022-10-17T13:57:42.000Z,89
2022-10-17T13:58:59.000Z,89.3
2022-10-17T14:00:15.000Z,89.3
2022-10-17T14:01:31.000Z,90.4
2022-10-17T14:02:47.000Z,89.6
2022-10-17T14:04:04.000Z,89.8
2022-10-17T14:05:20.000Z,90
2022-10-17T14:06:36.000Z,89.5
2022-10-17T14:07:51.000Z,89.5
2022-10-17T14:09:07.000Z,89.8
2022-10-17T14:10:24.000Z,89.7
2022-10-17T14:11:40.000Z,89.9
2022-10-17T14:12:56.000Z,90.1
2022-10-17T14:14:12.000Z,89.6
2022-10-17T14:15:29.000Z,89.2
2022-10-17T14:18:01.000Z,90.1
2022-10-17T14:19:17.000Z,89.8
2022-10-17T14:20:34.000Z,90
2022-10-17T14:21:50.000Z,89.6
2022-10-17T14:23:06.000Z,89.5
2022-10-17T14:24:21.000Z,89.8
2022-10-17T14:25:38.000Z,89.8
2022-10-17T14:26:54.000Z,90.1
2022-10-17T14:28:10.000Z,89.7
2022-10-17T14:30:42.000Z,90
2022-10-17T14:31:59.000Z,89.4
2022-10-17T14:33:15.000Z,89.1
2022-10-17T14:34:31.000Z,89.4
2022-10-17T14:35:47.000Z,89.4
2022-10-17T14:37:04.000Z,89.3
2022-10-17T14:38:20.000Z,89.8
2022-10-17T14:39:36.000Z,89.6
2022-10-17T14:40:51.000Z,89.3
2022-10-17T14:42:08.000Z,89.4
2022-10-17T14:43:24.000Z,89.3
2022-10-17T14:44:40.000Z,89.7
2022-10-17T14:45:56.000Z,89.8
2022-10-17T14:47:12.000Z,89.7
2022-10-17T14:48:29.000Z,89.9
2022-10-17T14:49:45.000Z,89
2022-10-17T14:51:01.000Z,89.3
2022-10-17T14:52:17.000Z,89.5
2022-10-17T14:53:33.000Z,89.5
2022-10-17T14:54:49.000Z,89.5
2022-10-17T14:56:05.000Z,89.3
2022-10-17T14:57:21.000Z,89.6
2022-10-17T14:58:38.000Z,89.5
2022-10-17T14:59:54.000Z,89.3
2022-10-17T15:01:10.000Z,89.6
2022-10-17T15:02:26.000Z,89.8
2022-10-17T15:03:43.000Z,89.6
2022-10-17T15:04:59.000Z,89.6
2022-10-17T15:06:15.000Z,89.8
2022-10-17T15:08:47.000Z,89.7
2022-10-17T15:10:03.000Z,89.9
2022-10-17T15:11:19.000Z,90.3
2022-10-17T15:15:08.000Z,90.1
2022-10-17T15:16:23.000Z,89.9
2022-10-17T15:17:38.000Z,89.9
2022-10-17T15:18:54.000Z,90.1
2022-10-17T15:20:11.000Z,89.7
2022-10-17T15:21:27.000Z,89.7
2022-10-17T15:22:43.000Z,89.7
2022-10-17T15:23:59.000Z,89.7
2022-10-17T15:25:16.000Z,89.7
2022-10-17T15:26:32.000Z,89.5
2022-10-17T15:27:48.000Z,89.5
2022-10-17T15:29:04.000Z,89.5
2022-10-17T15:30:20.000Z,89.9
2022-10-17T15:31:36.000Z,89.5
2022-10-17T15:32:51.000Z,89.5
2022-10-17T15:34:07.000Z,89.5
2022-10-17T15:35:23.000Z,89.8
2022-10-17T15:36:40.000Z,89.8
2022-10-17T15:37:56.000Z,90
2022-10-17T15:39:12.000Z,90
2022-10-17T15:40:28.000Z,89.7
2022-10-17T15:41:45.000Z,89.9
2022-10-17T15:43:01.000Z,90
2022-10-17T15:44:17.000Z,90.1
2022-10-17T15:46:50.000Z,90.2
2022-10-17T15:48:06.000Z,90.4
2022-10-17T15:49:21.000Z,90.5
2022-10-17T15:50:37.000Z,90.3
2022-10-17T15:51:54.000Z,90.3
2022-10-17T15:53:10.000Z,90.7
2022-10-17T15:54:26.000Z,90.7
2022-10-17T15:55:42.000Z,90.7
2022-10-17T15:56:58.000Z,90.9
2022-10-17T15:58:15.000Z,90.9
2022-10-17T15:59:31.000Z,91.1
2022-10-17T16:00:47.000Z,91.3
2022-10-17T16:02:03.000Z,91.2
2022-10-17T16:03:20.000Z,91.4
2022-10-17T16:04:36.000Z,91.4
2022-10-17T16:05:51.000Z,91.4
2022-10-17T16:07:07.000Z,91.4
2022-10-17T16:08:24.000Z,91.6
2022-10-17T16:09:40.000Z,91.5
2022-10-17T16:10:56.000Z,91.7
2022-10-17T16:12:12.000Z,91.5
2022-10-17T16:13:28.000Z,91.7
2022-10-17T16:14:45.000Z,91.8
2022-10-17T16:16:01.000Z,91.9
2022-10-17T16:17:17.000Z,92
2022-10-17T16:18:33.000Z,92
2022-10-17T16:19:50.000Z,91.6
2022-10-17T16:21:06.000Z,91.8
2022-10-17T16:22:21.000Z,91.8
2022-10-17T16:24:54.000Z,92
2022-10-17T16:26:10.000Z,92.2
2022-10-17T16:27:26.000Z,92.2
2022-10-17T16:28:42.000Z,92
2022-10-17T16:29:59.000Z,92.3
2022-10-17T16:31:15.000Z,92.3
2022-10-17T16:32:31.000Z,92.5
2022-10-17T16:33:47.000Z,92.5
2022-10-17T16:35:03.000Z,92.5
2022-10-17T16:37:36.000Z,92.9
2022-10-17T16:38:51.000Z,92.9
2022-10-17T16:40:07.000Z,92.8
2022-10-17T16:41:24.000Z,92.8
2022-10-17T16:42:40.000Z,92.8
2022-10-17T16:43:56.000Z,93.1
2022-10-17T16:45:12.000Z,93.3
2022-10-17T16:46:29.000Z,93.2
2022-10-17T16:47:45.000Z,93.4
2022-10-17T16:49:01.000Z,93.5
2022-10-17T16:50:17.000Z,93.6
2022-10-17T16:51:34.000Z,93.5
2022-10-17T16:52:50.000Z,93.8
2022-10-17T16:54:06.000Z,94
2022-10-17T16:55:21.000Z,94
2022-10-17T16:56:38.000Z,94.1
2022-10-17T16:57:54.000Z,94.2
2022-10-17T16:59:10.000Z,94.1
2022-10-17T17:00:27.000Z,94.1
2022-10-17T17:01:43.000Z,94.3
2022-10-17T17:02:59.000Z,94.3
2022-10-17T17:04:15.000Z,94.3
2022-10-17T17:06:48.000Z,94.7
2022-10-17T17:08:04.000Z,94.6
2022-10-17T17:09:21.000Z,94.6
2022-10-17T17:10:37.000Z,94.8
2022-10-17T17:11:52.000Z,94.8
2022-10-17T17:13:08.000Z,94.8
2022-10-17T17:15:41.000Z,94.9
2022-10-17T17:16:57.000Z,94.9
2022-10-17T17:18:14.000Z,94.9
2022-10-17T17:19:30.000Z,95
2022-10-17T17:20:46.000Z,95.1
2022-10-17T17:22:02.000Z,95
2022-10-17T17:23:19.000Z,94.8
2022-10-17T17:24:35.000Z,94.6
2022-10-17T17:25:51.000Z,94.5
2022-10-17T17:28:24.000Z,94.7
2022-10-17T17:29:39.000Z,94.8
2022-10-17T17:30:54.000Z,94.9
2022-10-17T17:32:11.000Z,95
2022-10-17T17:33:27.000Z,95.2
2022-10-17T17:34:43.000Z,95.3
2022-10-17T17:36:00.000Z,95.4
2022-10-17T17:37:16.000Z,95.4
2022-10-17T17:38:32.000Z,95.3
2022-10-17T17:39:48.000Z,95.2
2022-10-17T17:41:05.000Z,95.4
2022-10-17T17:42:21.000Z,95.3
2022-10-17T17:43:36.000Z,95.4
2022-10-17T17:44:52.000Z,95.5
2022-10-17T17:47:24.000Z,95.7
2022-10-17T17:48:41.000Z,95.7
2022-10-17T17:49:57.000Z,95.6
2022-10-17T17:51:13.000Z,95.8
2022-10-17T17:53:46.000Z,96
2022-10-17T17:55:02.000Z,96.2
2022-10-17T17:56:18.000Z,96.3
2022-10-17T17:57:35.000Z,96.3
2022-10-17T17:58:51.000Z,96.4
2022-10-17T18:00:06.000Z,96.5
2022-10-17T18:02:38.000Z,96.7
2022-10-17T18:03:54.000Z,96.9
2022-10-17T18:06:27.000Z,97
2022-10-17T18:07:43.000Z,97
2022-10-17T18:08:59.000Z,97
2022-10-17T18:10:15.000Z,97
2022-10-17T18:11:32.000Z,96.9
2022-10-17T18:12:48.000Z,96.9
2022-10-17T18:14:04.000Z,96.6
2022-10-17T18:15:21.000Z,96.5
2022-10-17T18:16:37.000Z,96.4
2022-10-17T18:17:52.000Z,96.2
2022-10-17T18:19:08.000Z,96
2022-10-17T18:20:25.000Z,95.3
2022-10-17T18:21:41.000Z,95.3
2022-10-17T18:22:57.000Z,95.3
2022-10-17T18:24:14.000Z,95.2
2022-10-17T18:25:30.000Z,94.8
2022-10-17T18:26:46.000Z,94.8
2022-10-17T18:28:02.000Z,94.7
2022-10-17T18:29:18.000Z,94.5
2022-10-17T18:30:33.000Z,94.3
2022-10-17T18:31:49.000Z,93.9
2022-10-17T18:33:06.000Z,93.8
2022-10-17T18:34:22.000Z,93.8
2022-10-17T18:35:38.000Z,93.7
2022-10-17T18:36:55.000Z,93.6